Portada
METAR-TAF:

METAR-TAF

Aeroports :

Multan, Pakistan

latitud: 30-12-12N, longitud: 71-25-09E, altitud: 122 m

Observació

L'informe es va fer fa 37 minuts, a les 12:00 UTC
Vent 4 kt del Sud-Oest
Temperatura 45°C
Humitat 17%
Pressió 999 hPa
Visibilitat: 4000 m
calitja

METAR: OPMT 251200Z 23004KT 4000 HZ NSC 45/14 Q0999 NOSIG

Hora: 17:37 (12:37 UTC)

Pronòstic

L'informe es va fer fa 2 hores i 52 minuts, a les 09:45 UTC
Pronòstic vàlid del 25 a les 12 UTC al 26 a les 06 UTC
Vent 10 kt del Sud-Oest
Visibilitat: 4000 m
Escasses núvols a una alçada de 12000 ft
calitja

TAF: OPMT 250945Z 2512/2606 23010KT 4000 HZ FEW120 TN29/2601Z

Observacions i pronòstics meteorològics de més de 4000 aeroports (METAR i TAF).

Les estacions disponibles són els punts grocs i vermells al mapa.

Posi el ratolí al punt desitjat per veure el nom de l'estació.

Feu clic per veure les observacions i els pronòstics meteorològics.

Per canviar el mapa: feu clic els botons verds amb una creu de color negre per apropar; al botó verd amb un guió per allunyar la imatge; o en les fletxes verdes per a mapes adjacents.


METAR-TAF: